createdAt,value
2023-03-30T08:10:12.280Z,11.80
2023-03-30T08:12:41.652Z,10.80
2023-03-30T08:15:10.720Z,11.80
2023-03-30T08:17:39.781Z,12.40
2023-03-30T08:20:11.913Z,10.10
2023-03-30T08:22:40.744Z,9.00
2023-03-30T08:25:09.597Z,9.40
2023-03-30T08:27:38.341Z,10.50
2023-03-30T08:30:07.632Z,18.40
2023-03-30T08:32:36.165Z,14.20
2023-03-30T08:35:05.710Z,10.30
2023-03-30T08:37:35.149Z,9.30
2023-03-30T08:40:06.925Z,8.40
2023-03-30T08:42:47.929Z,12.80
2023-03-30T08:45:18.793Z,12.60
2023-03-30T08:47:51.347Z,19.20
2023-03-30T08:50:37.152Z,11.30
2023-03-30T08:53:08.849Z,10.20
2023-03-30T08:55:46.531Z,14.40
2023-03-30T08:58:27.624Z,10.40
2023-03-30T09:01:20.798Z,15.80
2023-03-30T09:04:02.701Z,12.80
2023-03-30T09:06:54.598Z,16.40
2023-03-30T09:09:28.058Z,18.60
2023-03-30T09:12:03.860Z,18.60
2023-03-30T09:14:41.720Z,18.60
2023-03-30T09:17:10.360Z,33.10
2023-03-30T09:20:09.635Z,18.50
2023-03-30T09:22:42.172Z,22.50
2023-03-30T09:25:23.217Z,18.40
2023-03-30T09:28:30.035Z,16.10
2023-03-30T09:31:18.666Z,14.90
2023-03-30T09:33:59.904Z,15.00
2023-03-30T09:36:46.745Z,17.80
2023-03-30T09:39:20.590Z,20.00
2023-03-30T09:41:56.168Z,28.70
2023-03-30T09:44:42.133Z,27.90
2023-03-30T09:47:23.386Z,28.00
2023-03-30T09:50:00.749Z,19.50
2023-03-30T09:52:32.811Z,23.70
2023-03-30T09:55:23.214Z,19.60
2023-03-30T09:57:53.652Z,35.30
2023-03-30T10:00:32.581Z,23.80
2023-03-30T10:03:06.955Z,18.10
2023-03-30T10:05:38.023Z,24.00
2023-03-30T10:08:21.690Z,15.50
2023-03-30T10:10:57.107Z,14.80
2023-03-30T10:13:32.680Z,16.70
2023-03-30T10:16:12.944Z,17.60
2023-03-30T10:18:45.069Z,19.20
2023-03-30T10:21:35.141Z,19.00
2023-03-30T10:27:16.510Z,17.50
2023-03-30T10:29:49.072Z,16.90
2023-03-30T10:32:29.601Z,18.00
2023-03-30T10:35:12.170Z,20.80
2023-03-30T10:37:49.467Z,44.80
2023-03-30T10:40:28.858Z,25.40
2023-03-30T10:43:01.603Z,21.50
2023-03-30T10:45:35.373Z,24.60
2023-03-30T10:48:12.433Z,24.00
2023-03-30T10:51:01.863Z,27.20
2023-03-30T10:53:43.088Z,20.40
2023-03-30T10:56:37.786Z,21.50
2023-03-30T10:59:36.778Z,35.40
2023-03-30T11:02:42.184Z,22.10
2023-03-30T11:05:33.504Z,19.20
2023-03-30T11:08:08.049Z,24.20
2023-03-30T11:10:40.609Z,21.70
2023-03-30T11:13:22.178Z,18.70
2023-03-30T11:15:57.728Z,44.90
2023-03-30T11:18:37.211Z,28.00
2023-03-30T11:21:26.187Z,27.00
2023-03-30T11:24:04.687Z,25.30
2023-03-30T11:26:39.405Z,21.70
2023-03-30T11:29:47.383Z,15.50
2023-03-30T11:32:41.686Z,11.70
2023-03-30T11:35:30.698Z,14.80
2023-03-30T11:38:30.364Z,16.70
2023-03-30T11:41:07.613Z,17.50
2023-03-30T11:43:37.256Z,21.30
2023-03-30T11:46:28.053Z,13.40
2023-03-30T11:49:18.316Z,22.40
2023-03-30T11:52:22.452Z,22.30
2023-03-30T11:55:24.938Z,21.60
2023-03-30T11:58:20.480Z,26.50
2023-03-30T12:01:45.400Z,23.60
2023-03-30T12:04:28.464Z,30.80
2023-03-30T12:07:01.424Z,28.40
2023-03-30T12:09:42.190Z,21.70
2023-03-30T12:12:19.525Z,24.90
2023-03-30T12:15:23.777Z,23.20
2023-03-30T12:18:04.712Z,41.10
2023-03-30T12:20:40.132Z,24.00
2023-03-30T12:23:41.212Z,19.60
2023-03-30T12:26:29.622Z,17.60
2023-03-30T12:31:57.011Z,27.00
2023-03-30T12:34:32.761Z,20.20
2023-03-30T12:37:21.812Z,20.50
2023-03-30T12:40:14.788Z,19.40
2023-03-30T12:43:01.272Z,19.40
2023-03-30T12:45:34.472Z,22.70
2023-03-30T12:48:41.480Z,21.50
2023-03-30T12:51:42.192Z,21.30
2023-03-30T12:54:33.940Z,35.30
2023-03-30T12:57:18.620Z,35.00
2023-03-30T13:00:02.605Z,47.60
2023-03-30T13:02:55.640Z,41.10
2023-03-30T13:05:31.403Z,35.30
2023-03-30T13:08:07.112Z,24.20
2023-03-30T13:10:40.436Z,35.90
2023-03-30T13:13:22.300Z,41.50
2023-03-30T13:15:54.870Z,39.30
2023-03-30T13:18:33.392Z,32.00
2023-03-30T13:21:17.925Z,37.70
2023-03-30T13:24:24.686Z,52.50
2023-03-30T13:26:54.312Z,35.50
2023-03-30T13:29:24.538Z,15.60
2023-03-30T13:32:05.581Z,28.90
2023-03-30T13:37:33.529Z,25.00
2023-03-30T13:40:34.730Z,55.30
2023-03-30T13:43:23.893Z,19.20
2023-03-30T13:46:16.479Z,26.40
2023-03-30T13:49:05.048Z,25.70
2023-03-30T13:51:36.817Z,29.50
2023-03-30T13:54:14.589Z,26.00
2023-03-30T13:56:48.895Z,47.90
2023-03-30T13:59:22.369Z,29.50
2023-03-30T14:02:01.806Z,31.50
2023-03-30T14:04:32.122Z,23.20
2023-03-30T14:07:30.599Z,20.60
2023-03-30T14:10:26.132Z,17.60
2023-03-30T14:12:57.568Z,15.90
2023-03-30T14:15:35.336Z,13.80
2023-03-30T14:18:08.975Z,10.70
2023-03-30T14:20:48.916Z,13.10
2023-03-30T14:23:54.880Z,25.60
2023-03-30T14:26:27.117Z,19.80
2023-03-30T14:29:00.308Z,17.60
2023-03-30T14:31:37.905Z,11.50
2023-03-30T14:34:29.966Z,16.60
2023-03-30T14:37:06.381Z,16.70
2023-03-30T14:39:42.009Z,16.10
2023-03-30T14:42:20.195Z,18.40
2023-03-30T14:44:54.646Z,15.00
2023-03-30T14:47:28.469Z,20.40
2023-03-30T14:50:04.880Z,14.20
2023-03-30T14:52:41.188Z,13.70
2023-03-30T14:55:20.138Z,21.30
2023-03-30T14:57:50.026Z,18.90
2023-03-30T15:00:22.835Z,32.40
2023-03-30T15:03:00.825Z,24.10
2023-03-30T15:05:37.861Z,24.90
2023-03-30T15:08:07.104Z,26.40
2023-03-30T15:10:44.394Z,22.50
2023-03-30T15:13:27.586Z,26.20
2023-03-30T15:15:57.649Z,33.30
2023-03-30T15:18:29.370Z,19.40
2023-03-30T15:20:59.871Z,21.30
2023-03-30T15:23:36.705Z,71.70
2023-03-30T15:26:07.431Z,55.70
2023-03-30T15:28:47.537Z,51.30
2023-03-30T15:31:16.902Z,28.50
2023-03-30T15:33:45.678Z,43.40
2023-03-30T15:36:25.652Z,43.40
2023-03-30T15:38:58.990Z,46.00
2023-03-30T15:41:50.697Z,136.80
2023-03-30T15:44:21.727Z,50.50
2023-03-30T15:46:53.397Z,70.90
2023-03-30T15:49:28.685Z,66.10
2023-03-30T15:52:02.301Z,51.20
2023-03-30T15:54:39.896Z,26.20
2023-03-30T15:57:13.624Z,19.30
2023-03-30T15:59:49.414Z,31.50
2023-03-30T16:02:45.796Z,15.60
2023-03-30T16:05:23.828Z,16.60
2023-03-30T16:07:55.910Z,17.70
2023-03-30T16:13:02.384Z,16.30
2023-03-30T16:15:33.201Z,16.10
2023-03-30T16:18:02.048Z,23.60
2023-03-30T16:20:32.774Z,29.90
2023-03-30T16:23:01.721Z,23.80
2023-03-30T16:25:44.052Z,28.30
2023-03-30T16:28:17.666Z,38.30
2023-03-30T16:30:50.031Z,42.50
2023-03-30T16:33:19.105Z,40.90
2023-03-30T16:35:48.983Z,71.90
2023-03-30T16:38:18.217Z,27.90
2023-03-30T16:40:52.577Z,36.70
2023-03-30T16:43:21.493Z,31.30
2023-03-30T16:45:50.294Z,33.50
2023-03-30T16:48:19.042Z,47.30
2023-03-30T16:50:52.306Z,34.20
2023-03-30T16:53:21.863Z,22.60
2023-03-30T16:55:50.928Z,22.90
2023-03-30T16:58:21.399Z,31.90
2023-03-30T17:00:52.973Z,54.40
2023-03-30T17:03:37.290Z,49.30
2023-03-30T17:06:43.724Z,29.90
2023-03-30T17:09:35.842Z,27.30
2023-03-30T17:12:26.254Z,18.60
2023-03-30T17:15:11.870Z,22.80
2023-03-30T17:18:04.001Z,18.80
2023-03-30T17:21:00.742Z,20.60
2023-03-30T17:23:58.487Z,20.00
2023-03-30T17:26:46.756Z,14.60
2023-03-30T17:29:45.601Z,23.50
2023-03-30T17:32:34.419Z,36.00
2023-03-30T17:35:38.864Z,22.20
2023-03-30T17:38:32.331Z,19.10
2023-03-30T17:41:31.520Z,18.80
2023-03-30T17:44:08.300Z,22.80
2023-03-30T17:46:37.681Z,21.70
2023-03-30T17:49:15.492Z,19.80
2023-03-30T17:51:44.499Z,36.70
2023-03-30T17:54:16.868Z,20.90
2023-03-30T17:56:45.671Z,15.30
2023-03-30T17:59:14.178Z,24.60
2023-03-30T18:01:43.609Z,43.00
2023-03-30T18:04:12.681Z,17.20
2023-03-30T18:06:42.012Z,32.50
2023-03-30T18:09:19.857Z,49.90
2023-03-30T18:11:48.896Z,52.80
2023-03-30T18:14:17.617Z,43.40
2023-03-30T18:16:49.976Z,33.80
2023-03-30T18:19:19.488Z,42.80
2023-03-30T18:21:48.171Z,30.10
2023-03-30T18:24:17.176Z,34.90
2023-03-30T18:26:46.631Z,21.00
2023-03-30T18:29:23.273Z,16.90
2023-03-30T18:31:52.260Z,18.10
2023-03-30T18:34:21.100Z,9.60
2023-03-30T18:36:49.886Z,13.60
2023-03-30T18:39:20.213Z,5.60
2023-03-30T18:44:18.520Z,16.40
2023-03-30T18:46:52.299Z,10.50
2023-03-30T18:49:23.489Z,6.40
2023-03-30T18:51:53.695Z,5.00
2023-03-30T18:54:22.425Z,4.90
2023-03-30T18:56:52.121Z,10.10
2023-03-30T19:01:51.927Z,18.60
2023-03-30T19:04:21.958Z,8.50
2023-03-30T19:06:53.315Z,5.30
2023-03-30T19:09:32.883Z,6.60
2023-03-30T19:12:06.214Z,9.80
2023-03-30T19:14:35.057Z,7.50
2023-03-30T19:17:03.733Z,8.80
2023-03-30T19:19:33.150Z,5.50
2023-03-30T19:22:02.164Z,10.60
2023-03-30T19:24:31.248Z,9.30
2023-03-30T19:27:00.267Z,6.30
2023-03-30T19:29:29.153Z,5.90
2023-03-30T19:31:59.092Z,14.00
2023-03-30T19:34:28.722Z,9.20
2023-03-30T19:36:57.404Z,3.90
2023-03-30T19:39:26.216Z,8.90
2023-03-30T19:41:56.022Z,20.70
2023-03-30T19:44:24.902Z,22.60
2023-03-30T19:46:53.377Z,26.90
2023-03-30T19:49:22.322Z,36.70
2023-03-30T19:51:51.544Z,23.60
2023-03-30T19:54:21.076Z,27.80
2023-03-30T19:56:50.208Z,14.90
2023-03-30T19:59:20.439Z,15.90
2023-03-30T20:01:49.748Z,19.90
2023-03-30T20:04:18.512Z,22.20
2023-03-30T20:06:47.159Z,15.00
2023-03-30T20:09:16.879Z,12.90
2023-03-30T20:11:47.350Z,14.20
2023-03-30T20:14:15.800Z,11.10
2023-03-30T20:16:44.653Z,10.20
2023-03-30T20:19:28.625Z,10.10
2023-03-30T20:21:59.307Z,7.30
2023-03-30T20:24:28.620Z,12.70
2023-03-30T20:26:57.193Z,11.10
2023-03-30T20:29:26.048Z,13.10
2023-03-30T20:31:55.323Z,13.00
2023-03-30T20:34:24.537Z,13.60
2023-03-30T20:36:52.970Z,13.70
2023-03-30T20:39:27.457Z,10.90
2023-03-30T20:41:58.488Z,9.90
2023-03-30T20:44:30.529Z,11.90
2023-03-30T20:46:59.551Z,12.50
2023-03-30T20:49:29.047Z,9.80
2023-03-30T20:52:01.560Z,7.50
2023-03-30T20:54:31.221Z,16.10
2023-03-30T20:56:59.797Z,8.60
2023-03-30T20:59:28.842Z,11.10
2023-03-30T21:01:59.480Z,14.80
2023-03-30T21:04:29.139Z,10.30
2023-03-30T21:06:57.693Z,10.10
2023-03-30T21:09:27.448Z,8.10
2023-03-30T21:11:56.799Z,7.80
2023-03-30T21:14:25.762Z,6.60
2023-03-30T21:16:54.560Z,7.40
2023-03-30T21:19:23.769Z,11.20
2023-03-30T21:21:52.178Z,8.50
2023-03-30T21:24:21.232Z,5.60
2023-03-30T21:26:50.033Z,5.30
2023-03-30T21:29:19.242Z,6.90
2023-03-30T21:31:47.856Z,6.10
2023-03-30T21:34:19.166Z,6.00
2023-03-30T21:36:47.892Z,6.10
2023-03-30T21:39:17.419Z,5.80
2023-03-30T21:41:46.551Z,7.00
2023-03-30T21:44:15.060Z,5.30
2023-03-30T21:46:43.707Z,7.20
2023-03-30T21:49:13.215Z,7.50
2023-03-30T21:51:41.873Z,6.40
2023-03-30T21:54:11.537Z,6.50
2023-03-30T21:56:40.485Z,6.50
2023-03-30T21:59:10.014Z,7.90
2023-03-30T22:01:42.831Z,8.50
2023-03-30T22:04:11.490Z,5.30
2023-03-30T22:06:40.577Z,6.90
2023-03-30T22:09:09.147Z,8.00
2023-03-30T22:11:37.594Z,6.50
2023-03-30T22:14:06.626Z,6.10
2023-03-30T22:16:37.350Z,6.90
2023-03-30T22:19:05.813Z,6.60
2023-03-30T22:21:34.973Z,5.20
2023-03-30T22:24:06.812Z,5.80
2023-03-30T22:26:36.391Z,5.60
2023-03-30T22:29:06.275Z,5.90
2023-03-30T22:31:35.174Z,5.30
2023-03-30T22:34:03.780Z,8.90
2023-03-30T22:36:32.540Z,9.40
2023-03-30T22:39:02.549Z,8.60
2023-03-30T22:41:31.518Z,8.10
2023-03-30T22:44:00.629Z,6.90
2023-03-30T22:46:29.374Z,8.00
2023-03-30T22:48:58.227Z,11.60
2023-03-30T22:51:27.264Z,7.40
2023-03-30T22:54:00.568Z,10.60
2023-03-30T22:56:30.533Z,10.90
2023-03-30T22:59:01.774Z,7.80
2023-03-30T23:01:32.688Z,8.00
2023-03-30T23:04:02.002Z,12.00
2023-03-30T23:06:32.446Z,11.50
2023-03-30T23:09:04.805Z,8.40
2023-03-30T23:11:34.494Z,6.50
2023-03-30T23:14:05.669Z,6.90
2023-03-30T23:16:36.344Z,4.30
2023-03-30T23:19:06.397Z,7.10
2023-03-30T23:21:35.001Z,7.70
2023-03-30T23:24:07.762Z,6.90
2023-03-30T23:26:36.693Z,6.00
2023-03-30T23:29:05.931Z,8.10
2023-03-30T23:31:35.508Z,5.60
2023-03-30T23:34:04.702Z,7.10
2023-03-30T23:36:35.197Z,4.20
2023-03-30T23:39:04.177Z,4.80
2023-03-30T23:41:32.666Z,5.30
2023-03-30T23:44:01.663Z,7.90
2023-03-30T23:46:30.454Z,8.40
2023-03-30T23:48:59.048Z,4.90
2023-03-30T23:51:28.131Z,8.50
2023-03-30T23:54:00.493Z,8.30
2023-03-30T23:56:30.288Z,7.30
2023-03-30T23:58:59.702Z,4.60
